createdAt,value
2019-02-21T00:00:08.369Z,3.90
2019-02-21T00:00:44.122Z,3.95
2019-02-21T00:01:13.957Z,3.87
2019-02-21T00:01:43.324Z,3.80
2019-02-21T00:02:16.326Z,4.08
2019-02-21T00:02:44.789Z,4.05
2019-02-21T00:03:13.153Z,3.80
2019-02-21T00:03:41.449Z,4.20
2019-02-21T00:04:09.818Z,3.90
2019-02-21T00:04:38.186Z,3.62
2019-02-21T00:05:06.823Z,4.00
2019-02-21T00:05:35.184Z,4.25
2019-02-21T00:06:03.551Z,3.72
2019-02-21T00:06:31.960Z,3.90
2019-02-21T00:07:00.290Z,3.75
2019-02-21T00:07:28.682Z,3.70
2019-02-21T00:07:57.049Z,3.67
2019-02-21T00:08:25.372Z,3.60
2019-02-21T00:08:53.738Z,3.90
2019-02-21T00:09:22.105Z,3.50
2019-02-21T00:09:50.488Z,4.15
2019-02-21T00:10:18.856Z,4.20
2019-02-21T00:10:47.300Z,3.87
2019-02-21T00:11:15.586Z,3.80
2019-02-21T00:11:43.949Z,3.33
2019-02-21T00:12:12.377Z,3.75
2019-02-21T00:12:40.686Z,3.70
2019-02-21T00:13:09.050Z,3.80
2019-02-21T00:13:37.416Z,3.60
2019-02-21T00:14:05.790Z,3.90
2019-02-21T00:14:34.158Z,3.85
2019-02-21T00:15:02.891Z,3.87
2019-02-21T00:15:31.242Z,3.62
2019-02-21T00:15:59.618Z,3.70
2019-02-21T00:16:27.998Z,3.72
2019-02-21T00:16:56.361Z,3.70
2019-02-21T00:17:24.746Z,3.62
2019-02-21T00:17:53.042Z,3.70
2019-02-21T00:18:21.338Z,3.83
2019-02-21T00:18:49.701Z,3.77
2019-02-21T00:19:18.086Z,3.50
2019-02-21T00:19:46.575Z,3.40
2019-02-21T00:20:14.944Z,3.80
2019-02-21T00:20:43.317Z,3.83
2019-02-21T00:21:11.682Z,3.72
2019-02-21T00:21:40.053Z,3.77
2019-02-21T00:22:08.433Z,3.95
2019-02-21T00:22:36.855Z,3.92
2019-02-21T00:23:05.242Z,3.90
2019-02-21T00:23:33.594Z,3.95
2019-02-21T00:24:01.986Z,3.72
2019-02-21T00:24:30.358Z,4.08
2019-02-21T00:24:58.734Z,3.80
2019-02-21T00:25:27.135Z,3.70
2019-02-21T00:25:55.877Z,4.08
2019-02-21T00:26:24.370Z,3.67
2019-02-21T00:26:52.735Z,3.75
2019-02-21T00:27:21.123Z,3.65
2019-02-21T00:27:49.489Z,3.50
2019-02-21T00:28:17.781Z,3.98
2019-02-21T00:28:46.084Z,3.70
2019-02-21T00:29:14.447Z,3.55
2019-02-21T00:29:42.815Z,3.72
2019-02-21T00:30:11.182Z,3.98
2019-02-21T00:30:39.550Z,3.75
2019-02-21T00:31:07.923Z,3.58
2019-02-21T00:31:36.381Z,4.20
2019-02-21T00:32:04.754Z,3.70
2019-02-21T00:32:33.149Z,3.67
2019-02-21T00:33:01.514Z,3.80
2019-02-21T00:33:29.881Z,3.35
2019-02-21T00:33:58.257Z,4.10
2019-02-21T00:34:26.621Z,3.72
2019-02-21T00:34:55.042Z,3.60
2019-02-21T00:35:23.405Z,4.08
2019-02-21T00:35:51.710Z,3.60
2019-02-21T00:36:20.069Z,3.90
2019-02-21T00:36:48.442Z,3.80
2019-02-21T00:37:16.806Z,4.15
2019-02-21T00:37:45.194Z,3.77
2019-02-21T00:38:13.562Z,3.60
2019-02-21T00:38:41.962Z,3.85
2019-02-21T00:39:10.425Z,4.00
2019-02-21T00:39:38.793Z,3.90
2019-02-21T00:40:07.931Z,3.83
2019-02-21T00:40:36.293Z,3.30
2019-02-21T00:41:05.374Z,3.60
2019-02-21T00:41:33.737Z,3.70
2019-02-21T00:42:02.034Z,3.83
2019-02-21T00:42:30.449Z,3.75
2019-02-21T00:42:58.820Z,3.85
2019-02-21T00:43:27.258Z,3.87
2019-02-21T00:43:55.613Z,3.90
2019-02-21T00:44:24.077Z,3.60
2019-02-21T00:44:52.365Z,3.67
2019-02-21T00:45:20.709Z,4.08
2019-02-21T00:45:49.003Z,3.65
2019-02-21T00:46:17.372Z,3.67
2019-02-21T00:46:45.806Z,3.50
2019-02-21T00:47:14.170Z,3.98
2019-02-21T00:47:42.661Z,3.65
2019-02-21T00:48:10.959Z,3.58
2019-02-21T00:48:39.346Z,3.83
2019-02-21T00:49:07.638Z,3.42
2019-02-21T00:49:36.097Z,3.90
2019-02-21T00:50:05.133Z,3.60
2019-02-21T00:50:33.430Z,3.50
2019-02-21T00:51:01.805Z,3.62
2019-02-21T00:51:30.302Z,3.70
2019-02-21T00:51:58.667Z,3.60
2019-02-21T00:52:27.035Z,4.00
2019-02-21T00:52:55.498Z,3.52
2019-02-21T00:53:23.871Z,3.92
2019-02-21T00:53:52.307Z,4.00
2019-02-21T00:54:20.774Z,3.95
2019-02-21T00:54:49.137Z,3.70
2019-02-21T00:55:17.434Z,3.50
2019-02-21T00:55:45.806Z,3.60
2019-02-21T00:56:14.170Z,3.70
2019-02-21T00:56:42.597Z,3.62
2019-02-21T00:57:10.965Z,3.77
2019-02-21T00:57:39.356Z,3.75
2019-02-21T00:58:07.721Z,3.83
2019-02-21T00:58:36.085Z,3.30
2019-02-21T00:59:04.452Z,4.10
2019-02-21T00:59:32.817Z,3.60
2019-02-21T01:00:01.113Z,4.00
2019-02-21T01:00:29.523Z,3.70
2019-02-21T01:00:57.890Z,3.77
2019-02-21T01:01:26.261Z,3.58
2019-02-21T01:01:54.787Z,3.42
2019-02-21T01:02:23.112Z,3.62
2019-02-21T01:02:51.497Z,3.70
2019-02-21T01:03:19.785Z,3.80
2019-02-21T01:03:48.153Z,3.72
2019-02-21T01:04:16.534Z,3.80
2019-02-21T01:04:44.918Z,3.90
2019-02-21T01:05:13.270Z,3.87
2019-02-21T01:05:41.638Z,4.10
2019-02-21T01:06:10.105Z,3.70
2019-02-21T01:06:38.405Z,3.70
2019-02-21T01:07:06.781Z,3.50
2019-02-21T01:07:35.309Z,3.80
2019-02-21T01:08:03.631Z,3.55
2019-02-21T01:08:31.998Z,3.80
2019-02-21T01:09:00.394Z,3.87
2019-02-21T01:09:28.764Z,3.47
2019-02-21T01:09:57.134Z,3.47
2019-02-21T01:10:25.502Z,3.70
2019-02-21T01:10:53.871Z,3.77
2019-02-21T01:11:22.232Z,3.70
2019-02-21T01:11:50.581Z,3.55
2019-02-21T01:12:18.954Z,3.27
2019-02-21T01:12:47.386Z,3.77
2019-02-21T01:13:15.783Z,3.65
2019-02-21T01:13:44.253Z,3.75
2019-02-21T01:14:12.715Z,3.98
2019-02-21T01:14:41.090Z,3.72
2019-02-21T01:15:10.034Z,3.85
2019-02-21T01:15:38.395Z,3.65
2019-02-21T01:16:06.769Z,3.77
2019-02-21T01:16:35.130Z,3.60
2019-02-21T01:17:03.429Z,3.60
2019-02-21T01:17:31.792Z,3.90
2019-02-21T01:18:00.113Z,3.72
2019-02-21T01:18:28.553Z,3.55
2019-02-21T01:18:56.890Z,3.92
2019-02-21T01:19:25.253Z,3.67
2019-02-21T01:19:53.613Z,3.80
2019-02-21T01:20:21.902Z,3.72
2019-02-21T01:20:50.195Z,3.33
2019-02-21T01:21:18.561Z,3.33
2019-02-21T01:21:46.929Z,3.98
2019-02-21T01:22:15.294Z,3.62
2019-02-21T01:22:43.671Z,3.52
2019-02-21T01:23:12.042Z,3.47
2019-02-21T01:23:40.406Z,4.10
2019-02-21T01:24:08.778Z,3.85
2019-02-21T01:24:37.137Z,3.50
2019-02-21T01:25:06.742Z,4.10
2019-02-21T01:25:35.122Z,4.00
2019-02-21T01:26:03.494Z,3.58
2019-02-21T01:26:31.854Z,3.75
2019-02-21T01:27:00.225Z,3.55
2019-02-21T01:27:28.673Z,3.80
2019-02-21T01:27:56.985Z,3.70
2019-02-21T01:28:25.278Z,3.85
2019-02-21T01:28:54.017Z,3.60
2019-02-21T01:29:22.309Z,3.60
2019-02-21T01:29:50.698Z,3.98
2019-02-21T01:30:19.168Z,3.50
2019-02-21T01:30:56.606Z,3.60
2019-02-21T01:31:17.549Z,3.80
2019-02-21T01:31:45.854Z,3.60
2019-02-21T01:32:14.222Z,3.58
2019-02-21T01:32:42.586Z,3.75
2019-02-21T01:33:10.906Z,3.90
2019-02-21T01:33:39.296Z,3.77
2019-02-21T01:34:07.731Z,3.85
2019-02-21T01:34:36.107Z,3.40
2019-02-21T01:35:05.315Z,3.62
2019-02-21T01:35:33.641Z,3.75
2019-02-21T01:36:02.008Z,3.70
2019-02-21T01:36:30.373Z,3.58
2019-02-21T01:36:58.661Z,3.80
2019-02-21T01:37:27.035Z,3.90
2019-02-21T01:37:55.402Z,3.62
2019-02-21T01:38:23.861Z,3.62
2019-02-21T01:38:52.158Z,3.70
2019-02-21T01:39:20.663Z,3.67
2019-02-21T01:39:49.144Z,3.70
2019-02-21T01:40:17.506Z,3.52
2019-02-21T01:40:45.863Z,3.65
2019-02-21T01:41:14.251Z,3.83
2019-02-21T01:41:42.876Z,3.37
2019-02-21T01:42:13.987Z,3.95
2019-02-21T01:42:42.574Z,3.70
2019-02-21T01:43:10.963Z,4.00
2019-02-21T01:43:39.334Z,3.70
2019-02-21T01:44:07.629Z,3.47
2019-02-21T01:44:35.999Z,3.60
2019-02-21T01:45:06.002Z,3.60
2019-02-21T01:45:34.314Z,3.60
2019-02-21T01:46:02.785Z,3.72
2019-02-21T01:46:31.150Z,3.70
2019-02-21T01:46:59.516Z,3.30
2019-02-21T01:47:28.039Z,3.50
2019-02-21T01:47:56.454Z,3.70
2019-02-21T01:48:24.862Z,3.30
2019-02-21T01:48:53.229Z,3.47
2019-02-21T01:49:21.522Z,3.45
2019-02-21T01:49:49.889Z,3.83
2019-02-21T01:50:18.254Z,3.85
2019-02-21T01:50:46.541Z,3.60
2019-02-21T01:51:15.014Z,3.30
2019-02-21T01:51:43.474Z,3.58
2019-02-21T01:52:11.941Z,3.90
2019-02-21T01:52:40.234Z,3.70
2019-02-21T01:53:08.601Z,3.47
2019-02-21T01:53:36.985Z,3.77
2019-02-21T01:54:05.275Z,3.80
2019-02-21T01:54:33.642Z,3.65
2019-02-21T01:55:02.033Z,4.08
2019-02-21T01:55:30.398Z,3.70
2019-02-21T01:55:58.762Z,3.47
2019-02-21T01:56:27.052Z,3.52
2019-02-21T01:56:55.419Z,3.67
2019-02-21T01:57:23.777Z,3.52
2019-02-21T01:57:52.118Z,3.35
2019-02-21T01:58:20.429Z,3.85
2019-02-21T01:58:48.793Z,3.85
2019-02-21T01:59:17.082Z,3.40
2019-02-21T01:59:45.446Z,3.70
2019-02-21T02:00:13.883Z,3.77
2019-02-21T02:00:42.201Z,3.60
2019-02-21T02:01:10.675Z,3.40
2019-02-21T02:01:39.042Z,3.80
2019-02-21T02:02:07.410Z,3.50
2019-02-21T02:02:35.807Z,3.62
2019-02-21T02:03:04.248Z,3.55
2019-02-21T02:03:32.810Z,3.55
2019-02-21T02:04:01.101Z,3.30
2019-02-21T02:04:29.481Z,3.60
2019-02-21T02:04:57.770Z,3.52
2019-02-21T02:05:26.138Z,3.33
2019-02-21T02:05:54.523Z,3.60
2019-02-21T02:06:22.930Z,3.52
2019-02-21T02:06:51.261Z,3.83
2019-02-21T02:07:19.721Z,3.47
2019-02-21T02:07:48.019Z,3.52
2019-02-21T02:08:16.378Z,3.80
2019-02-21T02:08:44.769Z,3.42
2019-02-21T02:09:13.410Z,3.98
2019-02-21T02:09:41.702Z,3.45
2019-02-21T02:10:10.347Z,3.30
2019-02-21T02:10:38.705Z,3.85
2019-02-21T02:11:07.058Z,3.62
2019-02-21T02:11:35.596Z,3.77
2019-02-21T02:12:03.961Z,3.30
2019-02-21T02:12:32.722Z,3.87
2019-02-21T02:13:24.601Z,3.67
2019-02-21T02:13:50.484Z,3.37
2019-02-21T02:14:18.871Z,3.40
2019-02-21T02:14:47.221Z,3.25
2019-02-21T02:15:15.590Z,3.40
2019-02-21T02:15:43.959Z,3.52
2019-02-21T02:16:12.331Z,3.58
2019-02-21T02:16:40.621Z,3.37
2019-02-21T02:17:08.919Z,3.40
2019-02-21T02:17:37.285Z,3.30
2019-02-21T02:18:05.664Z,3.60
2019-02-21T02:18:34.055Z,3.42
2019-02-21T02:19:02.422Z,3.75
2019-02-21T02:19:30.971Z,3.30
2019-02-21T02:19:59.261Z,3.47
2019-02-21T02:20:27.558Z,3.58
2019-02-21T02:20:55.979Z,3.72
2019-02-21T02:21:24.333Z,3.40
2019-02-21T02:21:52.701Z,3.65
2019-02-21T02:22:21.068Z,3.83
2019-02-21T02:22:49.430Z,3.52
2019-02-21T02:23:17.731Z,3.50
2019-02-21T02:23:46.117Z,3.70
2019-02-21T02:24:14.897Z,3.55
2019-02-21T02:24:43.352Z,3.70
2019-02-21T02:25:11.734Z,3.42
2019-02-21T02:25:40.102Z,3.40
2019-02-21T02:26:08.483Z,3.55
2019-02-21T02:26:36.843Z,3.30
2019-02-21T02:27:05.208Z,3.58
2019-02-21T02:27:33.524Z,3.50
2019-02-21T02:28:01.890Z,3.50
2019-02-21T02:28:30.261Z,3.67
2019-02-21T02:28:58.650Z,3.35
2019-02-21T02:29:26.938Z,3.35
2019-02-21T02:29:55.316Z,3.15
2019-02-21T02:30:23.678Z,3.60
2019-02-21T02:30:52.040Z,3.70
2019-02-21T02:31:23.371Z,3.77
2019-02-21T02:31:50.419Z,3.42
2019-02-21T02:32:18.782Z,3.55
2019-02-21T02:32:47.362Z,3.30
2019-02-21T02:33:15.712Z,3.37
2019-02-21T02:33:44.097Z,3.65
2019-02-21T02:34:12.394Z,3.40
2019-02-21T02:34:40.865Z,3.75
2019-02-21T02:35:09.233Z,3.45
2019-02-21T02:35:37.604Z,3.60
2019-02-21T02:36:05.965Z,3.20
2019-02-21T02:36:34.335Z,3.50
2019-02-21T02:37:02.713Z,3.45
2019-02-21T02:37:31.014Z,3.58
2019-02-21T02:37:59.382Z,3.40
2019-02-21T02:38:27.751Z,3.60
2019-02-21T02:38:56.147Z,3.40
2019-02-21T02:39:24.560Z,3.40
2019-02-21T02:39:52.917Z,3.70
2019-02-21T02:40:21.291Z,3.30
2019-02-21T02:40:49.754Z,3.30
2019-02-21T02:41:18.113Z,3.67
2019-02-21T02:41:46.404Z,3.55
2019-02-21T02:42:14.777Z,3.58
2019-02-21T02:42:43.129Z,3.55
2019-02-21T02:43:11.502Z,3.42
2019-02-21T02:43:39.870Z,3.47
2019-02-21T02:44:08.257Z,3.42
2019-02-21T02:44:36.555Z,3.30
2019-02-21T02:45:06.485Z,3.60
2019-02-21T02:45:34.831Z,3.17
2019-02-21T02:46:03.198Z,3.15
2019-02-21T02:46:31.492Z,3.22
2019-02-21T02:46:59.857Z,3.40
2019-02-21T02:47:28.195Z,3.40
2019-02-21T02:47:56.565Z,3.40
2019-02-21T02:48:24.930Z,3.60
2019-02-21T02:48:53.317Z,3.42
2019-02-21T02:49:21.605Z,3.55
2019-02-21T02:49:49.918Z,3.50
2019-02-21T02:50:18.377Z,3.50
2019-02-21T02:50:46.746Z,3.15
2019-02-21T02:51:15.110Z,3.40
2019-02-21T02:51:43.476Z,3.30
2019-02-21T02:52:11.838Z,3.42
2019-02-21T02:52:40.310Z,3.65
2019-02-21T02:53:08.674Z,3.20
2019-02-21T02:53:37.041Z,3.42
2019-02-21T02:54:05.427Z,3.40
2019-02-21T02:54:33.729Z,3.50
2019-02-21T02:55:02.091Z,3.55
2019-02-21T02:55:30.514Z,3.60
2019-02-21T02:55:58.883Z,3.20
2019-02-21T02:56:27.262Z,3.25
2019-02-21T02:56:55.640Z,3.30
2019-02-21T02:57:23.997Z,3.67
2019-02-21T02:57:52.294Z,3.50
2019-02-21T02:58:20.686Z,3.77
2019-02-21T02:58:49.057Z,3.30
2019-02-21T02:59:17.438Z,3.10
2019-02-21T02:59:45.756Z,3.40
2019-02-21T03:00:14.680Z,3.30
2019-02-21T03:00:43.051Z,3.33
2019-02-21T03:01:11.405Z,3.40
2019-02-21T03:01:39.774Z,3.27
2019-02-21T03:02:08.217Z,3.20
2019-02-21T03:02:36.523Z,3.00
2019-02-21T03:03:04.949Z,3.35
2019-02-21T03:03:33.321Z,3.47
2019-02-21T03:04:01.922Z,3.30
2019-02-21T03:04:30.336Z,3.40
2019-02-21T03:04:58.693Z,3.40
2019-02-21T03:05:27.082Z,3.60
2019-02-21T03:05:55.370Z,3.30
2019-02-21T03:06:23.738Z,3.20
2019-02-21T03:06:52.050Z,3.40
2019-02-21T03:07:20.413Z,3.12
2019-02-21T03:07:48.810Z,2.95
2019-02-21T03:08:17.269Z,3.25
2019-02-21T03:08:45.744Z,3.20
2019-02-21T03:09:14.151Z,3.05
2019-02-21T03:09:42.503Z,3.20
2019-02-21T03:10:13.878Z,3.10
2019-02-21T03:10:42.350Z,3.40
2019-02-21T03:11:10.741Z,3.05
2019-02-21T03:11:39.107Z,3.47
2019-02-21T03:12:07.468Z,3.08
2019-02-21T03:12:35.838Z,3.10
2019-02-21T03:13:04.201Z,3.00
2019-02-21T03:13:32.494Z,3.17
2019-02-21T03:14:00.870Z,3.20
2019-02-21T03:14:29.257Z,3.35
2019-02-21T03:14:57.658Z,3.40
2019-02-21T03:15:26.129Z,3.40
2019-02-21T03:15:54.498Z,3.15
2019-02-21T03:16:22.970Z,3.22
2019-02-21T03:16:51.470Z,3.58
2019-02-21T03:17:19.806Z,3.45
2019-02-21T03:17:48.258Z,3.17
2019-02-21T03:18:16.627Z,3.47
2019-02-21T03:18:44.994Z,3.40
2019-02-21T03:19:13.381Z,3.33
2019-02-21T03:19:41.673Z,3.15
2019-02-21T03:20:10.318Z,3.30
2019-02-21T03:20:38.778Z,3.30
2019-02-21T03:21:07.151Z,3.30
2019-02-21T03:21:35.585Z,3.25
2019-02-21T03:22:04.058Z,3.22
2019-02-21T03:22:32.422Z,3.33
2019-02-21T03:23:00.794Z,3.05
2019-02-21T03:23:29.370Z,3.40
2019-02-21T03:23:57.739Z,3.35
2019-02-21T03:24:26.113Z,2.90
2019-02-21T03:24:54.478Z,3.35
2019-02-21T03:25:22.811Z,3.25
2019-02-21T03:25:51.181Z,3.10
2019-02-21T03:26:19.648Z,3.47
2019-02-21T03:26:48.020Z,3.00
2019-02-21T03:27:16.410Z,2.92
2019-02-21T03:27:44.717Z,3.30
2019-02-21T03:28:13.083Z,3.22
2019-02-21T03:28:41.460Z,3.40
2019-02-21T03:29:09.828Z,3.30
2019-02-21T03:29:38.210Z,3.58
2019-02-21T03:30:12.207Z,3.08
2019-02-21T03:30:38.738Z,2.80
2019-02-21T03:31:07.103Z,3.30
2019-02-21T03:31:52.607Z,3.10
2019-02-21T03:32:05.493Z,3.20
2019-02-21T03:32:33.861Z,3.65
2019-02-21T03:33:02.226Z,3.30
2019-02-21T03:33:30.655Z,3.00
2019-02-21T03:33:59.055Z,3.33
2019-02-21T03:34:27.484Z,3.15
2019-02-21T03:34:55.814Z,3.27
2019-02-21T03:35:24.214Z,3.47
2019-02-21T03:35:52.678Z,3.20
2019-02-21T03:36:21.067Z,3.10
2019-02-21T03:36:49.515Z,3.35
2019-02-21T03:37:18.042Z,3.33
2019-02-21T03:37:46.354Z,3.25
2019-02-21T03:38:14.926Z,3.12
2019-02-21T03:38:43.390Z,3.02
2019-02-21T03:39:11.777Z,3.08
2019-02-21T03:39:40.147Z,3.52
2019-02-21T03:40:09.664Z,3.55
2019-02-21T03:40:38.027Z,3.25
2019-02-21T03:41:06.389Z,3.27
2019-02-21T03:41:34.764Z,3.40
2019-02-21T03:42:03.130Z,3.02
2019-02-21T03:42:31.426Z,3.40
2019-02-21T03:42:59.721Z,3.50
2019-02-21T03:43:28.155Z,3.10
2019-02-21T03:43:56.627Z,3.20
2019-02-21T03:44:25.121Z,3.25
2019-02-21T03:44:53.489Z,3.12
2019-02-21T03:45:21.855Z,3.35
2019-02-21T03:45:50.232Z,3.20
2019-02-21T03:46:18.593Z,3.12
2019-02-21T03:46:46.983Z,3.10
2019-02-21T03:47:15.349Z,3.20
2019-02-21T03:47:43.754Z,3.25
2019-02-21T03:48:12.122Z,3.62
2019-02-21T03:48:40.487Z,3.12
2019-02-21T03:49:08.855Z,3.00
2019-02-21T03:49:37.345Z,3.00
2019-02-21T03:50:08.149Z,3.45
2019-02-21T03:50:36.439Z,3.50
2019-02-21T03:51:04.813Z,2.98
2019-02-21T03:51:33.178Z,3.30
2019-02-21T03:52:01.551Z,3.00
2019-02-21T03:52:29.913Z,3.60
2019-02-21T03:52:58.210Z,3.30
2019-02-21T03:53:26.569Z,3.47
2019-02-21T03:53:54.867Z,3.30
2019-02-21T03:54:23.159Z,3.12
2019-02-21T03:54:51.625Z,3.20
2019-02-21T03:55:19.990Z,3.22
2019-02-21T03:55:48.356Z,3.08
2019-02-21T03:56:16.780Z,3.40
2019-02-21T03:56:45.150Z,3.50
2019-02-21T03:57:13.521Z,3.33
2019-02-21T03:57:42.083Z,3.40
2019-02-21T03:58:10.449Z,3.40
2019-02-21T03:58:38.737Z,3.27
2019-02-21T03:59:07.110Z,3.00
2019-02-21T03:59:35.438Z,3.33
2019-02-21T04:00:05.138Z,3.20
2019-02-21T04:00:33.506Z,3.40
2019-02-21T04:01:01.967Z,3.35
2019-02-21T04:01:30.355Z,3.08
2019-02-21T04:02:05.231Z,3.02
2019-02-21T04:02:28.819Z,3.15
2019-02-21T04:02:57.184Z,3.15
2019-02-21T04:03:25.652Z,3.30
2019-02-21T04:03:54.089Z,3.20
2019-02-21T04:04:22.454Z,3.08
2019-02-21T04:04:50.771Z,3.25
2019-02-21T04:05:19.140Z,3.22
2019-02-21T04:05:47.503Z,3.20
2019-02-21T04:06:15.922Z,2.90
2019-02-21T04:06:44.216Z,3.45
2019-02-21T04:07:12.518Z,3.60
2019-02-21T04:07:40.881Z,3.02
2019-02-21T04:08:09.250Z,3.15
2019-02-21T04:08:37.643Z,3.17
2019-02-21T04:09:07.832Z,3.00
2019-02-21T04:09:36.234Z,3.10
2019-02-21T04:10:07.046Z,3.30
2019-02-21T04:10:35.518Z,3.15
2019-02-21T04:11:03.901Z,2.92
2019-02-21T04:11:32.279Z,3.20
2019-02-21T04:12:00.797Z,3.08
2019-02-21T04:12:29.074Z,3.00
2019-02-21T04:12:57.516Z,3.27
2019-02-21T04:13:25.897Z,3.30
2019-02-21T04:13:54.246Z,3.30
2019-02-21T04:14:22.687Z,3.27
2019-02-21T04:14:51.128Z,3.40
2019-02-21T04:15:19.557Z,3.08
2019-02-21T04:15:47.929Z,3.20
2019-02-21T04:16:16.298Z,3.47
2019-02-21T04:16:44.592Z,3.22
2019-02-21T04:17:12.961Z,3.33
2019-02-21T04:17:41.343Z,3.50
2019-02-21T04:18:09.689Z,3.40
2019-02-21T04:18:38.055Z,3.30
2019-02-21T04:19:06.471Z,3.40
2019-02-21T04:19:34.857Z,3.12
2019-02-21T04:20:03.816Z,3.10
2019-02-21T04:20:32.182Z,3.50
2019-02-21T04:21:00.475Z,3.00
2019-02-21T04:21:28.870Z,3.10
2019-02-21T04:21:57.214Z,3.10
2019-02-21T04:22:25.587Z,3.40
2019-02-21T04:22:53.950Z,3.00
2019-02-21T04:23:22.318Z,3.05
2019-02-21T04:23:50.694Z,3.20
2019-02-21T04:24:19.057Z,3.08
2019-02-21T04:24:47.374Z,3.70
2019-02-21T04:25:15.667Z,2.90
2019-02-21T04:25:44.030Z,3.37
2019-02-21T04:26:12.475Z,3.08
2019-02-21T04:26:40.842Z,3.20
2019-02-21T04:27:09.131Z,3.37
2019-02-21T04:27:37.498Z,3.17
2019-02-21T04:28:05.866Z,2.98
2019-02-21T04:28:34.238Z,3.40
2019-02-21T04:29:02.606Z,3.45
2019-02-21T04:29:32.619Z,3.10
2019-02-21T04:30:01.009Z,3.15
2019-02-21T04:30:29.370Z,3.20
2019-02-21T04:30:57.761Z,3.10
2019-02-21T04:31:26.049Z,2.90
2019-02-21T04:31:54.342Z,2.95
2019-02-21T04:32:22.638Z,3.35
2019-02-21T04:32:51.012Z,3.50
2019-02-21T04:33:19.379Z,3.20
2019-02-21T04:33:47.791Z,3.02
2019-02-21T04:34:16.114Z,3.37
2019-02-21T04:34:44.578Z,3.20
2019-02-21T04:35:12.972Z,3.42
2019-02-21T04:35:41.333Z,3.45
2019-02-21T04:36:09.627Z,3.37
2019-02-21T04:36:38.007Z,3.12
2019-02-21T04:37:06.373Z,3.02
2019-02-21T04:37:34.738Z,3.52
2019-02-21T04:38:03.038Z,2.95
2019-02-21T04:38:31.405Z,3.10
2019-02-21T04:38:59.770Z,3.35
2019-02-21T04:39:28.141Z,3.40
2019-02-21T04:39:56.537Z,3.02
2019-02-21T04:40:24.977Z,3.17
2019-02-21T04:40:53.314Z,3.05
2019-02-21T04:41:21.606Z,3.47
2019-02-21T04:41:50.055Z,3.27
2019-02-21T04:42:18.518Z,3.02
2019-02-21T04:42:46.997Z,3.22
2019-02-21T04:43:15.350Z,3.08
2019-02-21T04:43:43.718Z,3.00
2019-02-21T04:44:12.016Z,3.22
2019-02-21T04:44:40.450Z,3.67
2019-02-21T04:45:08.840Z,3.10
2019-02-21T04:45:37.205Z,3.05
2019-02-21T04:46:05.570Z,3.30
2019-02-21T04:46:33.940Z,3.20
2019-02-21T04:47:02.301Z,3.20
2019-02-21T04:47:30.686Z,3.50
2019-02-21T04:47:59.035Z,3.45
2019-02-21T04:48:27.409Z,3.20
2019-02-21T04:48:55.773Z,3.47
2019-02-21T04:49:24.145Z,3.17
2019-02-21T04:49:52.510Z,3.35
2019-02-21T04:50:20.898Z,3.33
2019-02-21T04:50:49.263Z,3.15
2019-02-21T04:51:17.650Z,3.22
2019-02-21T04:51:46.018Z,3.40
2019-02-21T04:52:14.391Z,3.20
2019-02-21T04:52:42.758Z,3.02
2019-02-21T04:53:11.126Z,3.30
2019-02-21T04:53:39.421Z,3.30
2019-02-21T04:54:07.793Z,3.45
2019-02-21T04:54:36.162Z,3.10
2019-02-21T04:55:05.393Z,3.35
2019-02-21T04:55:33.770Z,3.10
2019-02-21T04:56:02.146Z,3.05
2019-02-21T04:56:30.537Z,3.33
2019-02-21T04:56:58.904Z,3.47
2019-02-21T04:57:27.327Z,3.47
2019-02-21T04:57:55.698Z,3.40
2019-02-21T04:58:24.076Z,2.95
2019-02-21T04:58:52.512Z,3.00
2019-02-21T04:59:20.808Z,3.08
2019-02-21T04:59:49.176Z,3.27
2019-02-21T05:00:17.567Z,3.27
2019-02-21T05:00:45.935Z,3.35
2019-02-21T05:01:14.299Z,3.22
2019-02-21T05:01:42.713Z,3.58
2019-02-21T05:02:11.076Z,3.45
2019-02-21T05:02:39.451Z,3.30
2019-02-21T05:03:07.917Z,3.47
2019-02-21T05:03:36.273Z,3.37
2019-02-21T05:04:05.027Z,3.10
2019-02-21T05:04:33.405Z,3.50
2019-02-21T05:05:01.897Z,3.45
2019-02-21T05:05:30.283Z,3.30
2019-02-21T05:05:58.656Z,3.52
2019-02-21T05:06:27.019Z,3.67
2019-02-21T05:06:55.384Z,3.50
2019-02-21T05:07:23.812Z,3.80
2019-02-21T05:07:52.282Z,3.30
2019-02-21T05:08:20.653Z,3.42
2019-02-21T05:08:48.946Z,3.67
2019-02-21T05:09:17.241Z,3.55
2019-02-21T05:09:57.013Z,3.40
2019-02-21T05:10:15.681Z,3.65
2019-02-21T05:10:44.047Z,3.42
2019-02-21T05:11:12.413Z,3.50
2019-02-21T05:11:40.778Z,3.50
2019-02-21T05:12:09.188Z,3.67
2019-02-21T05:12:37.550Z,3.50
2019-02-21T05:13:05.918Z,3.70
2019-02-21T05:13:34.246Z,3.70
2019-02-21T05:14:02.664Z,3.65
2019-02-21T05:14:31.019Z,3.17
2019-02-21T05:14:59.381Z,3.52
2019-02-21T05:15:27.699Z,3.52
2019-02-21T05:15:56.070Z,3.60
2019-02-21T05:16:24.433Z,3.65
2019-02-21T05:16:52.798Z,3.65
2019-02-21T05:17:21.217Z,3.67
2019-02-21T05:17:49.581Z,3.62
2019-02-21T05:18:17.967Z,3.15
2019-02-21T05:18:46.333Z,3.50
2019-02-21T05:19:14.702Z,3.50
2019-02-21T05:19:43.069Z,3.45
2019-02-21T05:20:11.437Z,3.80
2019-02-21T05:20:39.794Z,3.40
2019-02-21T05:21:08.184Z,4.03
2019-02-21T05:21:36.556Z,3.92
2019-02-21T05:22:04.906Z,4.10
2019-02-21T05:22:33.193Z,3.67
2019-02-21T05:23:01.598Z,3.40
2019-02-21T05:23:29.890Z,3.92
2019-02-21T05:23:58.323Z,3.70
2019-02-21T05:24:26.687Z,3.85
2019-02-21T05:24:55.153Z,3.60
2019-02-21T05:25:23.483Z,4.45
2019-02-21T05:25:51.842Z,3.70
2019-02-21T05:26:21.848Z,4.00
2019-02-21T05:26:54.810Z,3.75
2019-02-21T05:27:24.749Z,3.80
2019-02-21T05:27:54.287Z,3.92
2019-02-21T05:28:26.853Z,4.90
2019-02-21T05:28:55.213Z,4.22
2019-02-21T05:29:23.514Z,5.40
2019-02-21T05:29:51.885Z,6.25
2019-02-21T05:30:21.842Z,7.05
2019-02-21T05:30:51.873Z,6.03
2019-02-21T05:31:27.598Z,4.83
2019-02-21T05:32:03.718Z,5.40
2019-02-21T05:32:41.093Z,6.25
2019-02-21T05:33:05.393Z,6.15
2019-02-21T05:33:37.966Z,6.25
2019-02-21T05:34:07.975Z,5.62
2019-02-21T05:34:54.266Z,5.45
2019-02-21T05:35:24.294Z,5.80
2019-02-21T05:35:54.357Z,5.30
2019-02-21T05:36:24.317Z,5.60
2019-02-21T05:37:09.174Z,5.22
2019-02-21T05:37:42.002Z,6.37
2019-02-21T05:38:27.163Z,6.10
2019-02-21T05:39:13.450Z,5.28
2019-02-21T05:39:49.478Z,5.95
2019-02-21T05:40:28.328Z,5.70
2019-02-21T05:40:57.101Z,5.12
2019-02-21T05:41:27.117Z,5.65
2019-02-21T05:42:00.025Z,5.58
2019-02-21T05:42:32.422Z,5.47
2019-02-21T05:43:07.945Z,5.33
2019-02-21T05:43:37.882Z,5.20
2019-02-21T05:44:07.831Z,5.87
2019-02-21T05:44:40.710Z,5.22
2019-02-21T05:45:16.194Z,4.80
2019-02-21T05:45:46.926Z,5.15
2019-02-21T05:46:23.224Z,4.78
2019-02-21T05:46:55.968Z,4.97
2019-02-21T05:47:44.020Z,4.75
2019-02-21T05:48:29.303Z,4.55
2019-02-21T05:49:08.045Z,4.83
2019-02-21T05:49:37.993Z,4.78
2019-02-21T05:50:08.847Z,4.90
2019-02-21T05:50:50.941Z,4.58
2019-02-21T05:51:23.615Z,4.72
2019-02-21T05:51:59.670Z,4.65
2019-02-21T05:52:35.497Z,4.58
2019-02-21T05:53:21.730Z,4.60
2019-02-21T05:53:51.746Z,4.53
2019-02-21T05:54:21.761Z,3.95
2019-02-21T05:54:54.183Z,4.80
2019-02-21T05:55:24.199Z,4.95
2019-02-21T05:55:56.942Z,4.92
2019-02-21T05:56:29.708Z,4.80
2019-02-21T05:57:02.366Z,4.83
2019-02-21T05:57:41.667Z,4.70
2019-02-21T05:58:29.759Z,5.22
2019-02-21T05:58:59.743Z,5.00
2019-02-21T05:59:35.738Z,5.17
2019-02-21T06:00:16.910Z,5.42
2019-02-21T06:00:52.686Z,4.85
2019-02-21T06:01:22.698Z,4.87
2019-02-21T06:02:10.481Z,5.30
2019-02-21T06:02:56.537Z,4.95
2019-02-21T06:03:26.472Z,5.17
2019-02-21T06:03:56.485Z,4.90
2019-02-21T06:04:29.003Z,5.50
2019-02-21T06:05:01.419Z,5.40
2019-02-21T06:05:31.430Z,5.65
2019-02-21T06:06:13.611Z,4.83
2019-02-21T06:06:43.613Z,6.20
2019-02-21T06:07:13.623Z,5.15
2019-02-21T06:07:43.634Z,5.30
2019-02-21T06:08:30.194Z,5.50
2019-02-21T06:09:00.206Z,7.95
2019-02-21T06:09:33.096Z,6.58
2019-02-21T06:10:14.669Z,5.85
2019-02-21T06:10:44.638Z,7.33
2019-02-21T06:11:18.387Z,7.45
2019-02-21T06:12:00.501Z,7.55
2019-02-21T06:12:46.718Z,6.92
2019-02-21T06:13:25.867Z,7.10
2019-02-21T06:14:04.778Z,7.03
2019-02-21T06:14:34.795Z,7.87
2019-02-21T06:15:23.229Z,7.20
2019-02-21T06:15:58.989Z,7.72
2019-02-21T06:16:40.901Z,7.37
2019-02-21T06:17:10.918Z,6.72
2019-02-21T06:17:49.728Z,6.60
2019-02-21T06:18:19.747Z,7.22
2019-02-21T06:18:49.775Z,8.53
2019-02-21T06:19:25.500Z,11.25
2019-02-21T06:19:55.514Z,12.07
2019-02-21T06:20:33.673Z,13.88
2019-02-21T06:21:05.882Z,14.07
2019-02-21T06:21:50.679Z,13.13
2019-02-21T06:22:28.730Z,12.28
2019-02-21T06:22:58.742Z,12.90
2019-02-21T06:23:28.757Z,11.90
2019-02-21T06:23:58.837Z,12.00
2019-02-21T06:24:34.843Z,14.30
2019-02-21T06:25:04.908Z,13.65
2019-02-21T06:25:51.949Z,11.63
2019-02-21T06:26:15.853Z,12.28
2019-02-21T06:26:51.785Z,12.40
2019-02-21T06:27:24.683Z,11.53
2019-02-21T06:28:06.679Z,11.97
2019-02-21T06:28:36.695Z,11.97
2019-02-21T06:29:09.964Z,11.68
2019-02-21T06:29:42.797Z,11.55
2019-02-21T06:30:12.846Z,10.75